Time;durP1;ratioP1;P1;durP2;ratioP2;P2;SDS_P1;SDS_P2;PMS_P1;PMS_P2;Temp;Humidity;BMP_temperature;BMP_pressure;BME280_temperature;BME280_humidity;BME280_pressure;Samples;Min_cycle;Max_cycle;Signal;HPM_P1;HPM_P2
2023/05/27 00:00:03;;;;;;;14.75;4.38;;;9.10;99.90;;;;;;5061216;28;20037;-61
2023/05/27 00:02:28;;;;;;;12.15;4.43;;;9.10;99.90;;;;;;5053487;28;20076;-61
2023/05/27 00:04:54;;;;;;;15.00;4.35;;;9.10;99.90;;;;;;5053507;28;20428;-61
2023/05/27 00:07:19;;;;;;;16.88;4.35;;;9.10;99.90;;;;;;5039151;28;20041;-62
2023/05/27 00:09:45;;;;;;;19.58;4.72;;;9.10;99.90;;;;;;5057841;28;20475;-61
2023/05/27 00:12:11;;;;;;;14.88;4.03;;;9.10;99.90;;;;;;5055601;28;20039;-61
2023/05/27 00:14:36;;;;;;;11.13;3.67;;;9.10;99.90;;;;;;5056968;28;20073;-61
2023/05/27 00:17:03;;;;;;;11.27;4.22;;;9.00;99.90;;;;;;5053221;28;20040;-61
2023/05/27 00:19:30;;;;;;;10.98;4.03;;;8.90;99.90;;;;;;5052550;28;20105;-61
2023/05/27 00:21:56;;;;;;;12.40;4.38;;;8.90;99.90;;;;;;5039451;28;20371;-62
2023/05/27 00:24:22;;;;;;;13.63;4.20;;;8.80;99.90;;;;;;5056424;28;20041;-62
2023/05/27 00:26:48;;;;;;;12.90;4.40;;;8.80;99.90;;;;;;5037321;28;20048;-61
2023/05/27 00:29:15;;;;;;;12.65;4.30;;;8.80;99.90;;;;;;5052382;28;20037;-61
2023/05/27 00:31:41;;;;;;;13.88;4.68;;;8.70;99.90;;;;;;5036838;28;20131;-61
2023/05/27 00:34:06;;;;;;;12.90;4.07;;;8.70;99.90;;;;;;5051889;28;20072;-62
2023/05/27 00:36:32;;;;;;;16.73;4.75;;;8.60;99.90;;;;;;5037411;28;20048;-62
2023/05/27 00:38:58;;;;;;;14.18;4.38;;;8.60;99.90;;;;;;5052696;28;20044;-61
2023/05/27 00:41:24;;;;;;;15.85;4.13;;;8.50;99.90;;;;;;5059862;28;20056;-61
2023/05/27 00:43:50;;;;;;;11.95;4.03;;;8.50;99.90;;;;;;5062254;28;20048;-61
2023/05/27 00:46:15;;;;;;;14.55;4.30;;;8.40;99.90;;;;;;5058324;28;20033;-62
2023/05/27 00:48:41;;;;;;;12.75;4.45;;;8.40;99.90;;;;;;5051980;28;20094;-61
2023/05/27 00:51:07;;;;;;;14.77;4.68;;;8.40;99.90;;;;;;5054419;28;20554;-61
2023/05/27 00:53:41;;;;;;;16.20;4.75;;;8.40;99.90;;;;;;5017170;28;20120;-61
2023/05/27 00:56:08;;;;;;;10.35;3.78;;;8.30;99.90;;;;;;5051859;28;20048;-61
2023/05/27 00:58:35;;;;;;;16.85;4.90;;;8.30;99.90;;;;;;5052036;28;20041;-61
2023/05/27 01:01:04;;;;;;;9.85;4.10;;;8.30;99.90;;;;;;5056263;28;20494;-62
2023/05/27 01:03:34;;;;;;;12.63;4.32;;;8.30;99.90;;;;;;5052514;28;20036;-61
2023/05/27 01:06:28;;;;;;;13.75;4.68;;;8.30;99.90;;;;;;5053134;28;20036;-61
2023/05/27 01:09:12;;;;;;;15.35;4.40;;;8.30;99.90;;;;;;5041199;28;20049;-61
2023/05/27 01:11:43;;;;;;;12.23;4.25;;;8.20;99.90;;;;;;5033779;28;20049;-62
2023/05/27 01:14:11;;;;;;;14.17;3.97;;;8.20;99.90;;;;;;5053498;28;20049;-61
2023/05/27 01:16:43;;;;;;;13.25;4.68;;;8.20;99.90;;;;;;5050820;28;20337;-61
2023/05/27 01:19:14;;;;;;;15.98;4.45;;;8.20;99.90;;;;;;5051818;28;20044;-62
2023/05/27 01:21:44;;;;;;;10.27;4.47;;;8.20;99.90;;;;;;5034953;28;20489;-62
2023/05/27 01:24:10;;;;;;;15.70;3.90;;;8.10;99.90;;;;;;5054514;28;20036;-61
2023/05/27 01:26:36;;;;;;;14.40;4.55;;;8.10;99.90;;;;;;5056887;28;20033;-61
2023/05/27 01:29:03;;;;;;;13.13;3.92;;;8.10;99.90;;;;;;5051524;28;20044;-61
2023/05/27 01:31:36;;;;;;;13.23;4.47;;;8.00;99.90;;;;;;5052635;28;20124;-61
2023/05/27 01:34:07;;;;;;;10.75;4.32;;;8.10;99.90;;;;;;5052400;28;20101;-61
2023/05/27 01:36:39;;;;;;;12.73;4.47;;;8.00;99.90;;;;;;5051223;28;20036;-61
2023/05/27 01:39:09;;;;;;;17.80;4.80;;;8.00;99.90;;;;;;5034823;28;20419;-61
2023/05/27 01:41:35;;;;;;;18.77;5.07;;;8.00;99.90;;;;;;5051470;28;20494;-61
2023/05/27 01:44:03;;;;;;;13.10;4.50;;;8.00;99.90;;;;;;5050939;28;20040;-61
2023/05/27 01:46:29;;;;;;;12.90;4.35;;;8.00;99.90;;;;;;5031422;28;20052;-61
2023/05/27 01:48:55;;;;;;;12.88;4.32;;;7.90;99.90;;;;;;5059290;28;20099;-62
2023/05/27 01:51:20;;;;;;;14.13;4.88;;;7.90;99.90;;;;;;5055057;28;20049;-62
2023/05/27 01:53:46;;;;;;;17.00;4.60;;;7.80;99.90;;;;;;5051073;28;20048;-61
2023/05/27 01:56:12;;;;;;;9.82;4.05;;;7.90;99.90;;;;;;5054978;28;20043;-61
2023/05/27 01:58:37;;;;;;;14.00;4.70;;;7.80;99.90;;;;;;5054854;28;20513;-61
2023/05/27 02:01:03;;;;;;;15.25;4.60;;;7.80;99.90;;;;;;5061394;28;20095;-62
2023/05/27 02:03:28;;;;;;;12.55;4.63;;;7.80;99.90;;;;;;5060851;28;20029;-61
2023/05/27 02:05:54;;;;;;;13.15;4.30;;;7.80;99.90;;;;;;5053900;28;20033;-62
2023/05/27 02:08:19;;;;;;;11.77;4.18;;;7.80;99.90;;;;;;5057795;28;20033;-61
2023/05/27 02:10:45;;;;;;;12.20;4.38;;;7.80;99.90;;;;;;5057460;28;20037;-61
2023/05/27 02:13:10;;;;;;;12.00;4.53;;;7.70;99.90;;;;;;5056564;28;20036;-61
2023/05/27 02:15:36;;;;;;;11.93;4.95;;;7.70;99.90;;;;;;5056975;28;20615;-61
2023/05/27 02:18:02;;;;;;;13.20;4.63;;;7.70;99.90;;;;;;5060242;28;20037;-62
2023/05/27 02:20:29;;;;;;;14.02;4.57;;;7.70;99.90;;;;;;5052868;28;20175;-62
2023/05/27 02:22:54;;;;;;;13.73;4.30;;;7.60;99.90;;;;;;5072402;28;20068;-61
2023/05/27 02:25:20;;;;;;;11.23;3.90;;;7.60;99.90;;;;;;5060876;28;20088;-62
2023/05/27 02:27:48;;;;;;;11.95;4.68;;;7.60;99.90;;;;;;5054824;28;20163;-61
2023/05/27 02:30:15;;;;;;;13.05;4.38;;;7.60;99.90;;;;;;5054858;28;20090;-61
2023/05/27 02:32:40;;;;;;;11.07;4.28;;;7.60;99.90;;;;;;5049442;28;20538;-62
2023/05/27 02:35:07;;;;;;;17.63;5.32;;;7.50;99.90;;;;;;5061204;28;20067;-61
2023/05/27 02:37:33;;;;;;;15.05;5.03;;;7.50;99.90;;;;;;5050982;28;20494;-61
2023/05/27 02:39:58;;;;;;;16.52;4.38;;;7.50;99.90;;;;;;5074248;28;20043;-61
2023/05/27 02:42:24;;;;;;;14.13;5.32;;;7.50;99.90;;;;;;5055691;28;20039;-62
2023/05/27 02:44:49;;;;;;;12.30;4.85;;;7.50;99.90;;;;;;5056685;28;20037;-61
2023/05/27 02:47:15;;;;;;;16.35;4.82;;;7.50;99.90;;;;;;5053444;28;20055;-61
2023/05/27 02:49:40;;;;;;;11.13;4.55;;;7.50;99.90;;;;;;5062494;28;20102;-61
2023/05/27 02:52:06;;;;;;;12.90;4.80;;;7.50;99.90;;;;;;5061163;28;20037;-61
2023/05/27 02:54:32;;;;;;;13.45;4.03;;;7.50;99.90;;;;;;5054260;28;20505;-61
2023/05/27 02:56:57;;;;;;;11.07;4.15;;;7.50;99.90;;;;;;5036439;28;20491;-61
2023/05/27 02:59:23;;;;;;;9.20;4.03;;;7.50;99.90;;;;;;5054280;28;20048;-61
2023/05/27 03:01:48;;;;;;;10.43;4.10;;;7.50;99.90;;;;;;5040024;28;20044;-61
2023/05/27 03:04:16;;;;;;;12.73;4.72;;;7.50;99.90;;;;;;5038709;28;20047;-61
2023/05/27 03:06:41;;;;;;;9.10;4.50;;;7.50;99.90;;;;;;5059906;28;20048;-62
2023/05/27 03:09:07;;;;;;;9.57;3.78;;;7.50;99.90;;;;;;5054045;28;20045;-61
2023/05/27 03:11:33;;;;;;;13.95;4.57;;;7.50;99.90;;;;;;5037012;28;20041;-61
2023/05/27 03:13:59;;;;;;;14.60;4.72;;;7.50;99.90;;;;;;5053535;28;20052;-62
2023/05/27 03:16:24;;;;;;;18.05;5.28;;;7.50;99.90;;;;;;5056134;28;20052;-61
2023/05/27 03:18:50;;;;;;;15.30;4.95;;;7.60;99.90;;;;;;5055654;28;20407;-61
2023/05/27 03:21:16;;;;;;;16.52;5.43;;;7.60;99.90;;;;;;5064187;28;20036;-61
2023/05/27 03:23:41;;;;;;;19.33;5.68;;;7.60;99.90;;;;;;5057791;28;20433;-61
2023/05/27 03:26:07;;;;;;;15.10;5.35;;;7.70;99.90;;;;;;5053473;28;20568;-62
2023/05/27 03:28:33;;;;;;;13.77;4.72;;;7.70;99.90;;;;;;5052128;28;20037;-61
2023/05/27 03:30:58;;;;;;;20.08;6.03;;;7.70;99.90;;;;;;5040759;28;20037;-61
2023/05/27 03:33:24;;;;;;;19.08;5.32;;;7.80;99.90;;;;;;5044774;28;20044;-61
2023/05/27 03:35:50;;;;;;;15.07;4.80;;;7.90;99.90;;;;;;5035246;28;20049;-62
2023/05/27 03:38:16;;;;;;;17.98;5.55;;;7.90;99.90;;;;;;5041522;28;20039;-62
2023/05/27 03:40:42;;;;;;;14.95;5.53;;;8.00;99.90;;;;;;5055187;28;20036;-61
2023/05/27 03:43:07;;;;;;;15.18;4.80;;;8.00;99.90;;;;;;5058752;28;20032;-62
2023/05/27 03:45:33;;;;;;;13.77;5.45;;;8.00;99.90;;;;;;5059483;28;20143;-62
2023/05/27 03:47:58;;;;;;;19.27;5.28;;;8.10;99.90;;;;;;5035741;28;20534;-61
2023/05/27 03:50:24;;;;;;;18.33;5.05;;;8.10;99.90;;;;;;5037245;28;20119;-61
2023/05/27 03:52:50;;;;;;;16.67;5.53;;;8.20;99.90;;;;;;5037952;28;20049;-62
2023/05/27 03:55:16;;;;;;;18.52;6.00;;;8.20;99.90;;;;;;5051391;28;20037;-61
2023/05/27 03:57:42;;;;;;;14.70;5.25;;;8.20;99.90;;;;;;5034369;28;20044;-62
2023/05/27 04:00:11;;;;;;;15.63;5.35;;;8.30;99.90;;;;;;5053171;28;20051;-61
2023/05/27 04:02:37;;;;;;;16.98;5.40;;;8.30;99.90;;;;;;5041458;28;20037;-61
2023/05/27 04:05:03;;;;;;;21.58;5.65;;;8.30;99.90;;;;;;5066166;28;20545;-62
2023/05/27 04:07:29;;;;;;;19.38;5.05;;;8.30;99.90;;;;;;5051758;28;20547;-62
2023/05/27 04:09:55;;;;;;;21.15;4.80;;;8.40;99.90;;;;;;5043148;28;20465;-62
2023/05/27 04:12:20;;;;;;;19.23;5.72;;;8.40;99.90;;;;;;5058292;28;20041;-61
2023/05/27 04:14:46;;;;;;;17.25;5.70;;;8.40;99.90;;;;;;5052283;28;20040;-62
2023/05/27 04:17:13;;;;;;;15.25;4.85;;;8.40;99.90;;;;;;5033468;28;20076;-62
2023/05/27 04:19:38;;;;;;;22.23;5.93;;;8.40;99.90;;;;;;5053038;28;20041;-61
2023/05/27 04:22:04;;;;;;;20.63;5.45;;;8.40;99.90;;;;;;5057591;28;20043;-61
2023/05/27 04:24:30;;;;;;;14.95;5.38;;;8.50;99.90;;;;;;5050665;28;20033;-61
2023/05/27 04:26:56;;;;;;;19.38;5.65;;;8.50;99.90;;;;;;5056226;28;20106;-62
2023/05/27 04:29:22;;;;;;;19.75;5.10;;;8.50;99.90;;;;;;5053686;28;20045;-62
2023/05/27 04:31:48;;;;;;;17.52;5.53;;;8.50;99.90;;;;;;5059498;28;20048;-62
2023/05/27 04:34:14;;;;;;;20.92;5.55;;;8.50;99.90;;;;;;5026277;28;20120;-61
2023/05/27 04:36:40;;;;;;;15.20;5.13;;;8.50;99.90;;;;;;5051807;28;20072;-61
2023/05/27 04:39:05;;;;;;;18.35;5.85;;;8.60;99.90;;;;;;5051386;28;20654;-61
2023/05/27 04:41:32;;;;;;;20.52;5.13;;;8.60;99.90;;;;;;5060518;28;20079;-61
2023/05/27 04:44:00;;;;;;;19.70;5.20;;;8.60;99.90;;;;;;5054127;28;20383;-62
2023/05/27 04:46:26;;;;;;;20.80;5.18;;;8.60;99.90;;;;;;5052461;28;20044;-61
2023/05/27 04:48:55;;;;;;;15.50;5.55;;;8.70;99.90;;;;;;5036667;28;20429;-61
2023/05/27 04:51:21;;;;;;;17.55;4.93;;;8.70;99.90;;;;;;5052114;28;20041;-62
2023/05/27 04:53:50;;;;;;;19.08;5.43;;;8.70;99.90;;;;;;5040747;28;20052;-62
2023/05/27 04:56:17;;;;;;;18.00;5.10;;;8.80;99.90;;;;;;5024259;28;20124;-61
2023/05/27 04:58:46;;;;;;;18.98;5.03;;;8.90;99.90;;;;;;5059747;28;20051;-61
2023/05/27 05:01:20;;;;;;;21.45;5.20;;;9.00;99.90;;;;;;5053432;28;20032;-61
2023/05/27 05:04:02;;;;;;;18.33;5.40;;;9.00;99.90;;;;;;5050500;28;20073;-61
2023/05/27 05:06:28;;;;;;;19.38;5.15;;;9.10;99.90;;;;;;5052003;28;20120;-61
2023/05/27 05:08:53;;;;;;;21.52;5.20;;;9.20;99.90;;;;;;5051612;28;20072;-61
2023/05/27 05:11:19;;;;;;;18.98;5.25;;;9.20;99.90;;;;;;5050527;28;20155;-61
2023/05/27 05:13:44;;;;;;;20.58;5.63;;;9.30;99.90;;;;;;5051520;28;20037;-61
2023/05/27 05:16:10;;;;;;;21.70;5.45;;;9.40;99.90;;;;;;5058703;28;20028;-61
2023/05/27 05:18:36;;;;;;;19.65;6.13;;;9.50;99.90;;;;;;5057907;28;20116;-61
2023/05/27 05:21:01;;;;;;;18.60;5.10;;;9.50;99.90;;;;;;5053852;28;20040;-61
2023/05/27 05:23:27;;;;;;;18.88;5.10;;;9.60;99.90;;;;;;5033671;28;20036;-61
2023/05/27 05:25:54;;;;;;;25.95;6.03;;;9.70;99.90;;;;;;5050473;28;20506;-61
2023/05/27 05:28:20;;;;;;;24.23;5.65;;;9.70;99.90;;;;;;5058361;28;20047;-61
2023/05/27 05:30:45;;;;;;;17.10;5.72;;;9.80;99.90;;;;;;5058336;28;20410;-62
2023/05/27 05:33:11;;;;;;;15.88;5.30;;;10.00;99.90;;;;;;5057663;28;20614;-61
2023/05/27 05:35:37;;;;;;;19.23;5.68;;;10.00;99.90;;;;;;5033184;28;20116;-61
2023/05/27 05:38:02;;;;;;;21.63;6.30;;;10.10;99.90;;;;;;5069468;28;20032;-61
2023/05/27 05:40:28;;;;;;;19.67;5.80;;;10.20;99.90;;;;;;5064021;28;20511;-61
2023/05/27 05:42:53;;;;;;;22.23;5.55;;;10.30;99.90;;;;;;5054027;28;20037;-61
2023/05/27 05:45:19;;;;;;;14.98;5.43;;;10.40;99.90;;;;;;5042846;28;20479;-61
2023/05/27 05:47:45;;;;;;;18.95;4.63;;;10.50;99.90;;;;;;5050693;28;20045;-62
2023/05/27 05:50:10;;;;;;;19.48;5.25;;;10.50;99.90;;;;;;5044525;28;20029;-62
2023/05/27 05:52:36;;;;;;;11.38;4.50;;;10.60;99.90;;;;;;5043958;28;21835;-61
2023/05/27 05:55:01;;;;;;;29.67;5.82;;;10.60;99.90;;;;;;5044333;28;20041;-61
2023/05/27 05:57:31;;;;;;;21.25;5.32;;;10.70;99.90;;;;;;5046123;28;20033;-62
2023/05/27 05:59:57;;;;;;;18.58;5.57;;;10.80;99.90;;;;;;5066224;28;20494;-62
2023/05/27 06:02:22;;;;;;;19.13;5.25;;;10.90;99.90;;;;;;5057178;28;20083;-62
2023/05/27 06:04:48;;;;;;;20.92;5.78;;;11.00;99.90;;;;;;5055339;28;20056;-62
2023/05/27 06:07:14;;;;;;;24.13;5.85;;;11.10;99.90;;;;;;5054584;28;20033;-62
2023/05/27 06:09:39;;;;;;;24.83;5.38;;;11.20;99.90;;;;;;5049596;28;20487;-61
2023/05/27 06:12:06;;;;;;;17.10;4.78;;;11.40;99.90;;;;;;5050021;28;20053;-62
2023/05/27 06:14:32;;;;;;;20.73;4.90;;;11.50;99.90;;;;;;5045768;28;20039;-61
2023/05/27 06:16:57;;;;;;;15.88;5.43;;;11.60;99.90;;;;;;5047118;28;20483;-61
2023/05/27 06:19:23;;;;;;;18.92;5.72;;;11.80;99.90;;;;;;5056409;28;20037;-62
2023/05/27 06:21:48;;;;;;;20.20;6.28;;;11.80;99.90;;;;;;5049132;28;20083;-61
2023/05/27 06:24:15;;;;;;;20.50;5.45;;;11.90;99.90;;;;;;5058029;28;20121;-61
2023/05/27 06:26:40;;;;;;;20.27;5.07;;;11.90;99.90;;;;;;5052223;28;20779;-62
2023/05/27 06:29:06;;;;;;;19.30;6.10;;;11.90;99.90;;;;;;5047188;28;20118;-61
2023/05/27 06:31:33;;;;;;;23.83;5.68;;;11.90;99.90;;;;;;5048771;28;20049;-62
2023/05/27 06:33:58;;;;;;;19.50;5.65;;;12.00;99.90;;;;;;5045462;28;20043;-61
2023/05/27 06:36:24;;;;;;;15.70;4.55;;;12.10;99.90;;;;;;5046760;28;20044;-61
2023/05/27 06:38:50;;;;;;;17.38;4.40;;;12.10;99.90;;;;;;5024937;28;20235;-61
2023/05/27 06:41:15;;;;;;;18.77;4.72;;;12.20;99.90;;;;;;5030841;28;20087;-61
2023/05/27 06:43:42;;;;;;;22.13;4.60;;;12.40;99.90;;;;;;5055409;28;20037;-61
2023/05/27 06:46:07;;;;;;;22.90;5.20;;;12.50;99.90;;;;;;5050011;28;20037;-62
2023/05/27 06:48:33;;;;;;;22.90;5.20;;;12.60;99.90;;;;;;5058958;28;20025;-62
2023/05/27 06:50:59;;;;;;;13.90;4.88;;;12.80;99.90;;;;;;5036370;28;20086;-61
2023/05/27 06:53:25;;;;;;;16.85;4.88;;;12.90;99.90;;;;;;5049893;28;20045;-62
2023/05/27 06:55:51;;;;;;;23.75;4.70;;;13.00;99.90;;;;;;5056329;28;20036;-61
2023/05/27 06:58:16;;;;;;;21.13;5.18;;;13.10;99.90;;;;;;5056403;28;20132;-61
2023/05/27 07:00:42;;;;;;;21.23;4.80;;;13.10;99.90;;;;;;5052874;28;20544;-61
2023/05/27 07:03:07;;;;;;;19.67;5.32;;;13.10;99.90;;;;;;5053813;28;20033;-61
2023/05/27 07:05:33;;;;;;;17.73;5.32;;;12.90;99.90;;;;;;5053986;28;20108;-62
2023/05/27 07:07:59;;;;;;;23.15;4.97;;;12.70;99.90;;;;;;5053953;28;20045;-62
2023/05/27 07:10:24;;;;;;;17.17;4.78;;;12.60;99.90;;;;;;5051843;28;20037;-62
2023/05/27 07:12:50;;;;;;;16.90;5.13;;;12.50;99.90;;;;;;5055393;28;20171;-62
2023/05/27 07:15:15;;;;;;;21.30;5.50;;;12.30;99.90;;;;;;5050366;28;20041;-62
2023/05/27 07:17:41;;;;;;;17.83;5.45;;;12.40;99.90;;;;;;5052250;28;20130;-61
2023/05/27 07:20:07;;;;;;;20.02;4.72;;;12.50;99.90;;;;;;5040400;28;20129;-62
2023/05/27 07:22:33;;;;;;;19.65;4.97;;;12.70;99.90;;;;;;5053251;28;20502;-61
2023/05/27 07:24:59;;;;;;;18.25;5.72;;;12.90;99.90;;;;;;5051939;28;20048;-61
2023/05/27 07:27:24;;;;;;;19.98;5.13;;;13.20;99.90;;;;;;5054605;28;20408;-62
2023/05/27 07:29:50;;;;;;;17.90;5.20;;;13.40;99.90;;;;;;5037840;28;20037;-61
2023/05/27 07:32:17;;;;;;;20.05;6.28;;;13.50;99.90;;;;;;5042463;28;20064;-62
2023/05/27 07:34:43;;;;;;;22.80;5.63;;;13.70;99.90;;;;;;5056769;28;20028;-61
2023/05/27 07:37:08;;;;;;;21.55;5.90;;;13.80;99.90;;;;;;5061456;28;20516;-61
2023/05/27 07:39:34;;;;;;;18.23;5.28;;;14.00;99.90;;;;;;5052556;28;20037;-61
2023/05/27 07:42:00;;;;;;;15.20;5.53;;;14.20;99.90;;;;;;5054035;28;20032;-61
2023/05/27 07:44:27;;;;;;;22.58;5.80;;;14.30;99.90;;;;;;5052511;28;20076;-61
2023/05/27 07:46:53;;;;;;;17.23;5.32;;;14.40;99.90;;;;;;5056784;28;20082;-61
2023/05/27 07:49:19;;;;;;;15.93;5.13;;;14.50;99.90;;;;;;5057342;28;20036;-62
2023/05/27 07:51:44;;;;;;;17.27;5.32;;;14.70;99.90;;;;;;5059215;28;20557;-62
2023/05/27 07:54:10;;;;;;;18.67;5.20;;;14.70;99.90;;;;;;5035568;28;20045;-62
2023/05/27 07:56:36;;;;;;;22.77;5.82;;;14.80;99.90;;;;;;5057547;28;20043;-62
2023/05/27 07:59:01;;;;;;;18.17;5.25;;;14.90;99.90;;;;;;5056841;28;20545;-62
2023/05/27 08:01:31;;;;;;;21.15;5.95;;;15.10;99.90;;;;;;5063816;28;20057;-62
2023/05/27 08:03:57;;;;;;;23.48;5.60;;;15.20;99.90;;;;;;5053095;28;20517;-62
2023/05/27 08:06:22;;;;;;;18.58;5.38;;;15.40;99.90;;;;;;5038787;28;20032;-62
2023/05/27 08:08:48;;;;;;;19.15;5.25;;;15.40;99.90;;;;;;5054088;28;20037;-62
2023/05/27 08:11:13;;;;;;;16.92;5.80;;;15.50;99.90;;;;;;5018753;28;20029;-62
2023/05/27 08:13:39;;;;;;;22.80;5.53;;;15.50;99.90;;;;;;5054630;28;20033;-62
2023/05/27 08:16:05;;;;;;;16.30;5.13;;;15.50;99.90;;;;;;5063182;28;20513;-62
2023/05/27 08:18:30;;;;;;;15.82;4.88;;;15.60;99.90;;;;;;5054514;28;20048;-62
2023/05/27 08:20:56;;;;;;;15.73;4.95;;;15.70;99.90;;;;;;5052742;28;20498;-62
2023/05/27 08:23:22;;;;;;;18.05;6.03;;;15.80;99.90;;;;;;5034982;28;20049;-62
2023/05/27 08:25:47;;;;;;;15.90;5.50;;;15.90;99.90;;;;;;5051307;28;20032;-62
2023/05/27 08:28:14;;;;;;;15.25;5.03;;;16.00;99.90;;;;;;5074942;22;20681;-66
2023/05/27 08:30:40;;;;;;;19.02;5.65;;;16.10;99.90;;;;;;5090563;28;20421;-67
2023/05/27 08:33:06;;;;;;;19.55;5.80;;;16.20;99.90;;;;;;5092648;28;20036;-66
2023/05/27 08:35:31;;;;;;;18.50;5.40;;;16.40;99.90;;;;;;5092015;28;20038;-66
2023/05/27 08:37:57;;;;;;;21.25;5.30;;;16.50;99.90;;;;;;5090741;28;20104;-66
2023/05/27 08:40:22;;;;;;;23.13;5.88;;;16.60;99.90;;;;;;5071394;28;20056;-66
2023/05/27 08:42:48;;;;;;;18.40;5.97;;;16.60;99.90;;;;;;5071606;28;20172;-67
2023/05/27 08:45:14;;;;;;;21.70;5.85;;;16.40;99.90;;;;;;5071811;28;20038;-66
2023/05/27 08:47:40;;;;;;;18.92;6.22;;;16.60;99.90;;;;;;5081232;28;20040;-67
2023/05/27 08:50:07;;;;;;;20.00;6.32;;;16.60;99.90;;;;;;5072368;28;20041;-67
2023/05/27 08:52:36;;;;;;;19.02;5.93;;;16.70;99.90;;;;;;5074254;28;20036;-67
2023/05/27 08:55:03;;;;;;;26.23;6.07;;;16.70;99.90;;;;;;5079750;28;20562;-66
2023/05/27 08:57:31;;;;;;;15.70;5.07;;;16.80;99.90;;;;;;5081919;28;20040;-66
2023/05/27 08:59:57;;;;;;;19.58;5.75;;;17.00;99.90;;;;;;5070988;28;20500;-67
2023/05/27 09:02:23;;;;;;;18.10;5.57;;;16.90;99.90;;;;;;5085301;28;20032;-67
2023/05/27 09:04:50;;;;;;;16.65;5.35;;;17.20;99.90;;;;;;5084777;28;20037;-66
2023/05/27 09:07:16;;;;;;;17.65;6.07;;;17.20;99.90;;;;;;5080205;28;20051;-66
2023/05/27 09:09:42;;;;;;;16.73;5.70;;;17.30;99.90;;;;;;5069269;28;20143;-66
2023/05/27 09:12:10;;;;;;;15.32;5.55;;;17.40;99.90;;;;;;5061517;28;20036;-67
2023/05/27 09:14:42;;;;;;;16.52;5.60;;;17.50;99.90;;;;;;5066356;28;20032;-66
2023/05/27 09:17:08;;;;;;;16.02;5.40;;;17.70;99.90;;;;;;5066526;28;20613;-67
2023/05/27 09:19:34;;;;;;;17.42;5.95;;;17.90;99.90;;;;;;5065464;28;20072;-67
2023/05/27 09:22:00;;;;;;;20.20;6.45;;;18.00;99.90;;;;;;5066443;28;20041;-67
2023/05/27 09:24:26;;;;;;;14.80;5.28;;;18.10;99.90;;;;;;5066780;28;20043;-66
2023/05/27 09:26:55;;;;;;;18.08;5.43;;;18.20;99.90;;;;;;5068718;28;20028;-66
2023/05/27 09:29:25;;;;;;;13.88;5.25;;;18.20;99.90;;;;;;5068890;28;20459;-66
2023/05/27 09:31:55;;;;;;;19.05;6.10;;;18.30;99.90;;;;;;5068201;28;20045;-66
2023/05/27 09:34:20;;;;;;;17.48;5.78;;;18.40;99.90;;;;;;5071374;28;20417;-66
2023/05/27 09:36:48;;;;;;;18.25;5.93;;;18.40;99.90;;;;;;5067316;28;20036;-66
2023/05/27 09:39:16;;;;;;;17.80;6.72;;;18.40;99.90;;;;;;5063547;28;20087;-66
2023/05/27 09:41:42;;;;;;;20.10;5.68;;;18.50;99.90;;;;;;5059607;28;20572;-66
2023/05/27 09:44:08;;;;;;;17.33;5.70;;;18.60;99.90;;;;;;5067165;28;20033;-66
2023/05/27 09:46:35;;;;;;;20.38;6.55;;;18.50;99.90;;;;;;5068622;28;20028;-66
2023/05/27 09:49:04;;;;;;;17.50;6.30;;;18.60;99.90;;;;;;5070136;28;20041;-66
2023/05/27 09:51:32;;;;;;;17.33;5.78;;;18.70;99.90;;;;;;5079640;28;20486;-66
2023/05/27 09:53:58;;;;;;;19.30;5.55;;;18.90;99.90;;;;;;5089407;28;20047;-66
2023/05/27 09:56:27;;;;;;;17.05;6.10;;;18.90;99.90;;;;;;5084045;28;20037;-66
2023/05/27 09:58:56;;;;;;;16.17;5.78;;;19.00;99.90;;;;;;5078993;28;20131;-66
2023/05/27 10:01:28;;;;;;;19.52;5.93;;;19.10;99.90;;;;;;5073565;28;20040;-66
2023/05/27 10:03:54;;;;;;;19.25;5.53;;;19.10;99.90;;;;;;5088404;28;20044;-66
2023/05/27 10:06:21;;;;;;;17.88;5.60;;;19.20;99.90;;;;;;5069410;28;20432;-66
2023/05/27 10:08:47;;;;;;;18.42;5.88;;;19.30;99.90;;;;;;5058335;28;20503;-66
2023/05/27 10:11:13;;;;;;;19.45;5.80;;;19.20;99.70;;;;;;5066706;28;20043;-66
2023/05/27 10:13:39;;;;;;;18.35;6.40;;;19.30;99.70;;;;;;5067271;28;20036;-66
2023/05/27 10:16:06;;;;;;;14.90;5.65;;;19.20;99.30;;;;;;5073202;28;20111;-67
2023/05/27 10:18:33;;;;;;;17.70;5.88;;;19.30;98.70;;;;;;5076673;28;20035;-66
2023/05/27 10:21:00;;;;;;;16.70;5.05;;;19.30;97.80;;;;;;5073271;28;20045;-66
2023/05/27 10:23:33;;;;;;;15.32;5.40;;;19.20;97.10;;;;;;5073936;28;20090;-66
2023/05/27 10:26:06;;;;;;;18.83;5.60;;;19.20;97.30;;;;;;5083612;28;20040;-66
2023/05/27 10:28:40;;;;;;;14.38;5.03;;;19.20;96.40;;;;;;5075713;28;20040;-66
2023/05/27 10:31:07;;;;;;;14.45;5.63;;;19.10;96.70;;;;;;5076589;28;20087;-66
2023/05/27 10:33:42;;;;;;;18.08;5.43;;;19.10;96.90;;;;;;5072842;28;20041;-66
2023/05/27 10:36:10;;;;;;;14.90;5.60;;;19.10;96.70;;;;;;5077866;28;20064;-66
2023/05/27 10:38:36;;;;;;;15.40;4.93;;;19.20;96.20;;;;;;5082546;28;20051;-66
2023/05/27 10:41:04;;;;;;;15.52;5.10;;;19.40;96.80;;;;;;5072907;28;20047;-66
2023/05/27 10:43:30;;;;;;;11.00;4.97;;;19.50;96.70;;;;;;5073270;28;20567;-66
2023/05/27 10:46:08;;;;;;;20.15;5.95;;;19.60;96.40;;;;;;5084008;28;20075;-67
2023/05/27 10:48:34;;;;;;;15.13;4.88;;;19.60;95.60;;;;;;5094836;28;20040;-67
2023/05/27 10:51:00;;;;;;;17.73;5.72;;;19.80;95.30;;;;;;5091161;28;20105;-67
2023/05/27 10:53:27;;;;;;;16.20;5.38;;;19.80;94.00;;;;;;5083123;28;20075;-67
2023/05/27 10:55:54;;;;;;;15.15;5.05;;;19.90;93.70;;;;;;5085420;28;20059;-66
2023/05/27 10:58:20;;;;;;;19.10;5.45;;;19.90;93.60;;;;;;5080772;28;20052;-67
2023/05/27 11:00:51;;;;;;;18.52;5.43;;;20.10;94.00;;;;;;5073192;28;20032;-67
2023/05/27 11:03:25;;;;;;;20.30;6.15;;;20.20;92.60;;;;;;5070196;28;20123;-67
2023/05/27 11:06:17;;;;;;;15.88;4.95;;;20.30;92.90;;;;;;5070360;28;20048;-65
2023/05/27 11:08:43;;;;;;;15.13;4.72;;;20.30;91.90;;;;;;5081422;28;20090;-64
2023/05/27 11:11:11;;;;;;;12.68;5.00;;;20.20;92.60;;;;;;5085903;28;20036;-64
2023/05/27 11:13:39;;;;;;;17.98;5.50;;;20.20;92.10;;;;;;5085091;28;20504;-64
2023/05/27 11:16:06;;;;;;;13.15;4.93;;;20.20;91.80;;;;;;5075053;28;20502;-65
2023/05/27 11:18:39;;;;;;;17.45;5.88;;;20.20;91.70;;;;;;5084756;28;20032;-65
2023/05/27 11:21:06;;;;;;;22.00;5.30;;;20.30;91.90;;;;;;5079883;28;20040;-65
2023/05/27 11:23:40;;;;;;;14.90;4.85;;;20.20;91.60;;;;;;5080784;28;20484;-64
2023/05/27 11:26:32;;;;;;;14.27;5.30;;;20.30;91.40;;;;;;5070910;28;20051;-64
2023/05/27 11:28:58;;;;;;;16.67;5.40;;;20.40;90.60;;;;;;5062911;28;20405;-66
2023/05/27 11:31:28;;;;;;;17.63;5.28;;;20.40;91.60;;;;;;5071241;28;20127;-66
2023/05/27 11:33:54;;;;;;;16.02;5.25;;;20.40;90.80;;;;;;5071753;28;20049;-67
2023/05/27 11:36:21;;;;;;;17.85;5.28;;;20.20;89.50;;;;;;5072184;28;20123;-66
2023/05/27 11:39:00;;;;;;;15.77;4.95;;;20.20;90.80;;;;;;5073418;28;20032;-66
2023/05/27 11:41:29;;;;;;;16.50;6.13;;;20.00;89.80;;;;;;5072458;28;20521;-67
2023/05/27 11:44:00;;;;;;;15.50;5.10;;;20.10;90.30;;;;;;5072995;28;20089;-66
2023/05/27 11:46:40;;;;;;;11.23;4.97;;;20.30;90.30;;;;;;5073546;28;20036;-67
2023/05/27 11:49:08;;;;;;;18.17;5.05;;;20.40;90.20;;;;;;5072696;28;20028;-65
2023/05/27 11:51:36;;;;;;;13.15;4.63;;;20.50;89.10;;;;;;5073394;28;20102;-65
2023/05/27 11:54:02;;;;;;;14.27;4.88;;;20.70;86.40;;;;;;5073017;28;20115;-64
2023/05/27 11:56:28;;;;;;;13.45;5.18;;;20.70;84.40;;;;;;5073162;28;20083;-64
2023/05/27 11:58:55;;;;;;;15.93;4.80;;;20.70;85.00;;;;;;5073347;28;20107;-64
2023/05/27 12:01:20;;;;;;;11.32;4.70;;;20.70;85.20;;;;;;5072304;28;20045;-65
2023/05/27 12:03:46;;;;;;;17.08;5.35;;;20.80;85.60;;;;;;5072813;28;20032;-65
2023/05/27 12:06:12;;;;;;;35.75;6.75;;;20.80;84.70;;;;;;5073038;28;20075;-64
2023/05/27 12:08:38;;;;;;;15.85;5.00;;;20.80;83.90;;;;;;5072881;28;20401;-65
2023/05/27 12:11:04;;;;;;;10.95;4.60;;;20.80;85.20;;;;;;5070141;28;20036;-67
2023/05/27 12:13:31;;;;;;;15.80;4.60;;;20.80;82.20;;;;;;5069599;28;20566;-67
2023/05/27 12:15:57;;;;;;;13.23;4.65;;;20.80;81.40;;;;;;5071422;28;20040;-67
2023/05/27 12:18:23;;;;;;;14.93;4.72;;;20.90;79.30;;;;;;5072227;28;20032;-67
2023/05/27 12:20:49;;;;;;;14.60;5.25;;;21.00;80.40;;;;;;5071359;28;20040;-66
2023/05/27 12:23:15;;;;;;;12.88;4.82;;;21.00;79.30;;;;;;5071530;28;20060;-65
2023/05/27 12:25:40;;;;;;;15.43;5.22;;;21.20;78.40;;;;;;5070164;28;20383;-65
2023/05/27 12:28:10;;;;;;;14.43;4.50;;;21.10;77.70;;;;;;5071283;28;20068;-65
2023/05/27 12:30:36;;;;;;;13.02;4.55;;;21.30;76.90;;;;;;5071628;28;20040;-65
2023/05/27 12:33:03;;;;;;;13.02;4.75;;;21.40;76.30;;;;;;5072101;28;20507;-65
2023/05/27 12:35:30;;;;;;;13.70;4.60;;;21.50;75.60;;;;;;5065720;28;20048;-65
2023/05/27 12:37:56;;;;;;;17.75;4.50;;;21.40;76.40;;;;;;5070490;28;20036;-65